createdAt,value
2022-08-01T00:00:10.639Z,90.52
2022-08-01T00:01:10.628Z,90.52
2022-08-01T00:02:10.729Z,90.12
2022-08-01T00:03:10.679Z,90.52
2022-08-01T00:04:10.781Z,88.61
2022-08-01T00:05:10.613Z,88.31
2022-08-01T00:06:10.584Z,88.37
2022-08-01T00:07:10.614Z,87.87
2022-08-01T00:08:10.551Z,86.86
2022-08-01T00:09:10.686Z,88.37
2022-08-01T00:10:10.533Z,87.57
2022-08-01T00:11:10.494Z,88.07
2022-08-01T00:12:10.849Z,88.57
2022-08-01T00:13:10.654Z,87.46
2022-08-01T00:14:10.449Z,86.96
2022-08-01T00:15:10.498Z,86.56
2022-08-01T00:16:10.458Z,88.57
2022-08-01T00:17:10.428Z,88.67
2022-08-01T00:18:10.449Z,88.27
2022-08-01T00:19:10.389Z,87.26
2022-08-01T00:20:10.448Z,88.27
2022-08-01T00:21:10.430Z,87.57
2022-08-01T00:22:10.437Z,87.37
2022-08-01T00:23:10.329Z,87.16
2022-08-01T00:24:14.442Z,90.17
2022-08-01T00:25:10.314Z,89.87
2022-08-01T00:26:10.303Z,90.48
2022-08-01T00:27:10.364Z,89.37
2022-08-01T00:28:10.283Z,89.67
2022-08-01T00:29:13.244Z,87.37
2022-08-01T00:30:15.342Z,89.58
2022-08-01T00:31:10.304Z,88.97
2022-08-01T00:32:10.442Z,89.58
2022-08-01T00:33:10.383Z,89.67
2022-08-01T00:34:10.448Z,90.37
2022-08-01T00:35:10.312Z,90.42
2022-08-01T00:36:10.177Z,89.62
2022-08-01T00:37:10.277Z,91.22
2022-08-01T00:38:10.149Z,90.92
2022-08-01T00:39:10.180Z,90.52
2022-08-01T00:40:10.122Z,90.12
2022-08-01T00:41:10.088Z,89.51
2022-08-01T00:42:10.128Z,90.12
2022-08-01T00:43:10.078Z,90.82
2022-08-01T00:44:10.132Z,91.32
2022-08-01T00:45:10.375Z,91.42
2022-08-01T00:46:10.132Z,90.62
2022-08-01T00:47:10.043Z,90.52
2022-08-01T00:48:10.123Z,91.02
2022-08-01T00:49:10.418Z,90.92
2022-08-01T00:50:09.973Z,90.32
2022-08-01T00:51:10.012Z,91.63
2022-08-01T00:52:10.125Z,91.63
2022-08-01T00:53:09.918Z,92.13
2022-08-01T00:54:10.128Z,91.17
2022-08-01T00:55:09.993Z,90.86
2022-08-01T00:56:09.898Z,91.67
2022-08-01T00:57:10.871Z,91.87
2022-08-01T00:58:09.922Z,92.07
2022-08-01T00:59:09.968Z,91.17
2022-08-01T01:00:09.837Z,93.18
2022-08-01T01:01:09.998Z,92.68
2022-08-01T01:02:14.668Z,91.37
2022-08-01T01:03:09.842Z,90.86
2022-08-01T01:04:09.865Z,93.08
2022-08-01T01:05:09.842Z,93.48
2022-08-01T01:06:09.754Z,93.88
2022-08-01T01:07:09.753Z,93.52
2022-08-01T01:08:09.728Z,91.71
2022-08-01T01:09:09.714Z,91.91
2022-08-01T01:10:09.704Z,91.01
2022-08-01T01:11:09.743Z,91.11
2022-08-01T01:12:09.895Z,91.71
2022-08-01T01:13:09.669Z,90.61
2022-08-01T01:14:09.682Z,90.46
2022-08-01T01:15:09.658Z,89.66
2022-08-01T01:16:09.819Z,90.77
2022-08-01T01:17:09.737Z,90.16
2022-08-01T01:18:09.578Z,91.06
2022-08-01T01:19:09.668Z,89.76
2022-08-01T01:20:09.569Z,90.06
2022-08-01T01:21:09.649Z,89.76
2022-08-01T01:22:09.880Z,88.35
2022-08-01T01:23:09.658Z,89.96
2022-08-01T01:24:09.533Z,89.66
2022-08-01T01:25:09.663Z,90.06
2022-08-01T01:26:09.483Z,89.76
2022-08-01T01:27:09.663Z,90.86
2022-08-01T01:28:09.563Z,90.91
2022-08-01T01:29:09.642Z,90.20
2022-08-01T01:30:09.482Z,90.30
2022-08-01T01:31:11.037Z,90.20
2022-08-01T01:32:09.482Z,90.20
2022-08-01T01:33:09.656Z,90.11
2022-08-01T01:34:09.577Z,90.00
2022-08-01T01:35:09.378Z,90.41
2022-08-01T01:36:11.576Z,89.90
2022-08-01T01:37:09.338Z,90.50
2022-08-01T01:38:09.329Z,89.80
2022-08-01T01:39:09.349Z,89.50
2022-08-01T01:40:09.827Z,90.50
2022-08-01T01:41:09.399Z,90.91
2022-08-01T01:42:09.497Z,91.25
2022-08-01T01:43:09.307Z,91.46
2022-08-01T01:44:09.504Z,90.45
2022-08-01T01:45:09.355Z,91.66
2022-08-01T01:46:09.224Z,92.26
2022-08-01T01:47:09.665Z,92.16
2022-08-01T01:48:09.244Z,91.55
2022-08-01T01:49:09.386Z,91.55
2022-08-01T01:50:09.184Z,90.85
2022-08-01T01:51:09.182Z,91.46
2022-08-01T01:52:09.453Z,92.16
2022-08-01T01:53:15.268Z,91.46
2022-08-01T01:54:09.272Z,91.15
2022-08-01T01:55:09.361Z,90.65
2022-08-01T01:56:09.186Z,91.86
2022-08-01T01:57:09.077Z,91.46
2022-08-01T01:58:09.197Z,91.96
2022-08-01T01:59:09.369Z,90.05
2022-08-01T02:00:09.111Z,90.65
2022-08-01T02:01:14.740Z,90.34
2022-08-01T02:02:09.317Z,90.75
2022-08-01T02:03:09.140Z,91.05
2022-08-01T02:04:08.988Z,91.75
2022-08-01T02:05:09.082Z,91.86
2022-08-01T02:06:09.162Z,90.45
2022-08-01T02:07:08.924Z,91.05
2022-08-01T02:08:08.904Z,91.35
2022-08-01T02:09:09.030Z,92.26
2022-08-01T02:10:09.173Z,91.35
2022-08-01T02:11:08.959Z,90.65
2022-08-01T02:12:09.251Z,90.15
2022-08-01T02:13:08.835Z,89.84
2022-08-01T02:14:08.869Z,90.34
2022-08-01T02:15:08.828Z,90.75
2022-08-01T02:16:08.789Z,90.75
2022-08-01T02:17:08.859Z,90.25
2022-08-01T02:18:08.849Z,91.15
2022-08-01T02:19:09.028Z,90.95
2022-08-01T02:20:08.779Z,93.57
2022-08-01T02:21:08.739Z,91.25
2022-08-01T02:22:09.004Z,91.55
2022-08-01T02:23:08.698Z,90.55
2022-08-01T02:24:08.853Z,90.05
2022-08-01T02:25:08.719Z,91.05
2022-08-01T02:26:10.736Z,92.56
2022-08-01T02:27:08.694Z,92.36
2022-08-01T02:28:08.683Z,91.96
2022-08-01T02:29:08.688Z,91.55
2022-08-01T02:30:08.864Z,93.66
2022-08-01T02:31:08.683Z,93.66
2022-08-01T02:32:08.780Z,92.76
2022-08-01T02:33:15.540Z,94.17
2022-08-01T02:34:08.588Z,94.17
2022-08-01T02:35:08.767Z,93.77
2022-08-01T02:36:31.797Z,94.57
2022-08-01T02:37:08.528Z,94.12
2022-08-01T02:38:08.529Z,92.10
2022-08-01T02:39:09.032Z,91.80
2022-08-01T02:40:08.539Z,92.71
2022-08-01T02:41:08.689Z,93.21
2022-08-01T02:42:08.950Z,93.51
2022-08-01T02:43:08.439Z,94.82
2022-08-01T02:44:08.543Z,94.42
2022-08-01T02:45:08.505Z,93.91
2022-08-01T02:46:08.534Z,93.61
2022-08-01T02:47:08.385Z,95.12
2022-08-01T02:48:08.524Z,95.02
2022-08-01T02:49:08.474Z,94.82
2022-08-01T02:50:08.604Z,94.62
2022-08-01T02:51:08.354Z,94.82
2022-08-01T02:52:08.929Z,94.36
2022-08-01T02:53:08.372Z,94.67
2022-08-01T02:54:08.559Z,95.17
2022-08-01T02:55:08.379Z,95.27
2022-08-01T02:56:08.349Z,94.96
2022-08-01T02:57:08.248Z,95.27
2022-08-01T02:58:08.208Z,95.57
2022-08-01T02:59:08.389Z,95.47
2022-08-01T03:00:08.194Z,95.77
2022-08-01T03:01:08.434Z,96.28
2022-08-01T03:02:08.863Z,97.08
2022-08-01T03:03:08.369Z,97.28
2022-08-01T03:04:08.209Z,96.88
2022-08-01T03:05:08.402Z,96.42
2022-08-01T03:06:08.234Z,97.73
2022-08-01T03:07:08.224Z,97.13
2022-08-01T03:08:14.602Z,96.92
2022-08-01T03:09:08.385Z,97.03
2022-08-01T03:10:08.054Z,97.13
2022-08-01T03:11:08.076Z,97.43
2022-08-01T03:12:08.654Z,97.03
2022-08-01T03:13:08.085Z,96.12
2022-08-01T03:14:07.994Z,95.51
2022-08-01T03:15:08.069Z,96.52
2022-08-01T03:16:08.229Z,96.22
2022-08-01T03:17:08.050Z,96.12
2022-08-01T03:18:07.939Z,95.81
2022-08-01T03:19:08.015Z,95.61
2022-08-01T03:20:07.927Z,95.41
2022-08-01T03:21:07.900Z,95.92
2022-08-01T03:22:08.198Z,95.61
2022-08-01T03:23:07.860Z,95.81
2022-08-01T03:24:07.913Z,96.52
2022-08-01T03:25:07.935Z,96.92
2022-08-01T03:26:07.925Z,95.92
2022-08-01T03:27:07.862Z,96.22
2022-08-01T03:28:07.895Z,96.42
2022-08-01T03:29:08.053Z,96.62
2022-08-01T03:30:07.885Z,96.62
2022-08-01T03:31:07.824Z,98.03
2022-08-01T03:32:08.328Z,96.32
2022-08-01T03:33:07.766Z,96.12
2022-08-01T03:34:07.739Z,95.41
2022-08-01T03:35:07.724Z,95.11
2022-08-01T03:36:07.899Z,95.51
2022-08-01T03:37:07.820Z,95.41
2022-08-01T03:38:16.512Z,95.31
2022-08-01T03:39:07.729Z,94.20
2022-08-01T03:40:07.889Z,93.90
2022-08-01T03:41:07.720Z,94.51
2022-08-01T03:42:08.153Z,95.01
2022-08-01T03:43:07.789Z,94.96
2022-08-01T03:44:07.590Z,94.26
2022-08-01T03:45:07.720Z,93.55
2022-08-01T03:46:07.585Z,94.26
2022-08-01T03:47:07.564Z,94.67
2022-08-01T03:48:07.647Z,94.67
2022-08-01T03:49:07.596Z,95.57
2022-08-01T03:50:12.223Z,94.06
2022-08-01T03:51:07.498Z,94.96
2022-08-01T03:52:07.887Z,94.46
2022-08-01T03:53:07.455Z,93.96
2022-08-01T03:54:07.634Z,93.66
2022-08-01T03:55:07.444Z,93.96
2022-08-01T03:56:07.580Z,93.76
2022-08-01T03:57:07.416Z,93.46
2022-08-01T03:58:09.837Z,93.76
2022-08-01T03:59:07.420Z,94.56
2022-08-01T04:00:07.639Z,94.56
2022-08-01T04:01:07.469Z,95.17
2022-08-01T04:02:07.959Z,94.06
2022-08-01T04:03:07.402Z,93.46
2022-08-01T04:04:07.311Z,93.66
2022-08-01T04:05:07.491Z,94.16
2022-08-01T04:06:07.316Z,93.55
2022-08-01T04:07:07.434Z,93.76
2022-08-01T04:08:07.275Z,93.55
2022-08-01T04:09:12.801Z,93.05
2022-08-01T04:10:07.244Z,93.35
2022-08-01T04:11:07.304Z,92.75
2022-08-01T04:12:12.356Z,92.40
2022-08-01T04:13:07.405Z,93.01
2022-08-01T04:14:09.259Z,93.41
2022-08-01T04:15:07.164Z,93.11
2022-08-01T04:16:07.163Z,92.91
2022-08-01T04:17:07.224Z,93.11
2022-08-01T04:18:07.251Z,93.11
2022-08-01T04:19:07.418Z,92.71
2022-08-01T04:20:07.249Z,93.31
2022-08-01T04:21:07.090Z,92.80
2022-08-01T04:22:07.360Z,92.50
2022-08-01T04:23:07.120Z,92.46
2022-08-01T04:24:07.039Z,93.16
2022-08-01T04:25:07.091Z,91.35
2022-08-01T04:26:07.240Z,91.35
2022-08-01T04:27:07.106Z,92.56
2022-08-01T04:28:06.996Z,92.06
2022-08-01T04:29:07.175Z,93.16
2022-08-01T04:30:07.255Z,91.86
2022-08-01T04:31:07.087Z,92.76
2022-08-01T04:32:07.345Z,92.52
2022-08-01T04:33:06.934Z,93.42
2022-08-01T04:34:06.944Z,91.11
2022-08-01T04:35:22.948Z,91.82
2022-08-01T04:36:06.926Z,91.82
2022-08-01T04:37:06.869Z,90.50
2022-08-01T04:38:06.950Z,90.91
2022-08-01T04:39:07.113Z,91.31
2022-08-01T04:40:06.919Z,91.41
2022-08-01T04:41:09.126Z,91.11
2022-08-01T04:42:07.371Z,91.01
2022-08-01T04:43:06.791Z,91.31
2022-08-01T04:44:06.761Z,90.91
2022-08-01T04:45:06.790Z,91.61
2022-08-01T04:46:06.729Z,91.51
2022-08-01T04:47:06.884Z,90.16
2022-08-01T04:48:06.936Z,90.66
2022-08-01T04:49:06.816Z,90.06
2022-08-01T04:50:06.945Z,89.96
2022-08-01T04:51:06.775Z,90.32
2022-08-01T04:52:07.184Z,89.31
2022-08-01T04:53:06.845Z,89.62
2022-08-01T04:54:06.625Z,89.78
2022-08-01T04:55:06.764Z,88.87
2022-08-01T04:56:06.586Z,88.63
2022-08-01T04:57:06.601Z,87.82
2022-08-01T04:58:06.630Z,87.32
2022-08-01T04:59:06.859Z,88.23
2022-08-01T05:00:06.619Z,87.18
2022-08-01T05:01:06.924Z,87.88
2022-08-01T05:02:06.969Z,88.18
2022-08-01T05:03:06.780Z,87.68
2022-08-01T05:04:06.670Z,86.38
2022-08-01T05:05:06.511Z,86.98
2022-08-01T05:06:06.599Z,85.53
2022-08-01T05:07:06.447Z,85.03
2022-08-01T05:08:06.623Z,85.24
2022-08-01T05:09:06.445Z,85.30
2022-08-01T05:10:06.945Z,84.95
2022-08-01T05:11:06.454Z,83.95
2022-08-01T05:12:07.059Z,83.91
2022-08-01T05:13:06.376Z,82.67
2022-08-01T05:14:06.346Z,82.23
2022-08-01T05:15:07.228Z,82.43
2022-08-01T05:16:06.395Z,81.29
2022-08-01T05:17:06.516Z,80.19
2022-08-01T05:18:07.791Z,78.66
2022-08-01T05:19:06.291Z,78.52
2022-08-01T05:20:06.280Z,78.81
2022-08-01T05:21:06.289Z,77.72
2022-08-01T05:22:06.570Z,78.05
2022-08-01T05:23:06.479Z,79.59
2022-08-01T05:24:06.232Z,79.93
2022-08-01T05:25:06.259Z,79.83
2022-08-01T05:26:06.189Z,80.23
2022-08-01T05:27:06.180Z,80.53
2022-08-01T05:28:06.294Z,80.23
2022-08-01T05:29:06.184Z,80.53
2022-08-01T05:30:06.285Z,81.73
2022-08-01T05:31:06.247Z,82.69
2022-08-01T05:32:06.607Z,81.49
2022-08-01T05:33:06.124Z,80.55
2022-08-01T05:34:06.084Z,81.05
2022-08-01T05:35:06.145Z,81.56
2022-08-01T05:36:06.065Z,79.65
2022-08-01T05:37:06.204Z,80.02
2022-08-01T05:38:06.309Z,79.61
2022-08-01T05:39:06.139Z,79.52
2022-08-01T05:40:06.296Z,80.71
2022-08-01T05:41:06.129Z,80.05
2022-08-01T05:42:06.300Z,80.95
2022-08-01T05:43:06.210Z,80.26
2022-08-01T05:44:05.973Z,80.79
2022-08-01T05:45:06.133Z,80.69
2022-08-01T05:46:05.959Z,82.59
2022-08-01T05:47:05.954Z,81.89
2022-08-01T05:48:05.976Z,80.99
2022-08-01T05:49:06.300Z,81.39
2022-08-01T05:50:06.014Z,82.29
2022-08-01T05:51:06.136Z,80.89
2022-08-01T05:52:06.185Z,82.15
2022-08-01T05:53:06.145Z,81.69
2022-08-01T05:54:06.060Z,81.49
2022-08-01T05:55:05.805Z,82.49
2022-08-01T05:56:05.977Z,83.09
2022-08-01T05:57:05.819Z,80.89
2022-08-01T05:58:05.773Z,82.29
2022-08-01T05:59:05.890Z,81.79
2022-08-01T06:00:05.749Z,81.89
2022-08-01T06:01:05.815Z,80.99
2022-08-01T06:02:06.347Z,82.39
2022-08-01T06:03:05.812Z,83.79
2022-08-01T06:04:05.710Z,83.39
2022-08-01T06:05:09.061Z,83.53
2022-08-01T06:06:05.729Z,84.13
2022-08-01T06:07:05.634Z,84.13
2022-08-01T06:08:05.634Z,83.13
2022-08-01T06:09:05.825Z,83.03
2022-08-01T06:10:05.653Z,83.73
2022-08-01T06:11:05.807Z,82.83
2022-08-01T06:12:05.903Z,84.23
2022-08-01T06:13:05.556Z,84.47
2022-08-01T06:14:05.748Z,84.27
2022-08-01T06:15:05.527Z,85.07
2022-08-01T06:16:05.645Z,84.27
2022-08-01T06:17:05.510Z,84.57
2022-08-01T06:18:05.509Z,83.47
2022-08-01T06:19:05.479Z,84.77
2022-08-01T06:20:05.529Z,84.67
2022-08-01T06:21:05.596Z,84.07
2022-08-01T06:22:05.897Z,83.57
2022-08-01T06:23:31.204Z,83.77
2022-08-01T06:24:05.411Z,83.57
2022-08-01T06:25:05.508Z,83.73
2022-08-01T06:26:05.390Z,83.13
2022-08-01T06:27:05.565Z,84.33
2022-08-01T06:28:05.656Z,83.39
2022-08-01T06:29:05.344Z,83.09
2022-08-01T06:30:05.354Z,82.59
2022-08-01T06:31:05.324Z,82.59
2022-08-01T06:32:05.612Z,82.39
2022-08-01T06:33:05.274Z,82.39
2022-08-01T06:34:05.384Z,81.39
2022-08-01T06:35:05.265Z,81.45
2022-08-01T06:36:05.416Z,81.56
2022-08-01T06:37:05.892Z,81.12
2022-08-01T06:38:05.350Z,81.12
2022-08-01T06:39:05.502Z,81.98
2022-08-01T06:40:05.331Z,80.88
2022-08-01T06:41:05.190Z,78.54
2022-08-01T06:42:05.513Z,80.10
2022-08-01T06:43:05.239Z,78.60
2022-08-01T06:44:05.159Z,79.60
2022-08-01T06:45:05.183Z,77.91
2022-08-01T06:46:05.337Z,77.17
2022-08-01T06:47:05.187Z,77.87
2022-08-01T06:48:05.334Z,76.77
2022-08-01T06:49:05.601Z,78.03
2022-08-01T06:50:05.333Z,77.33
2022-08-01T06:51:05.173Z,76.93
2022-08-01T06:52:05.409Z,75.20
2022-08-01T06:53:05.184Z,76.50
2022-08-01T06:54:05.004Z,73.97
2022-08-01T06:55:05.245Z,71.78
2022-08-01T06:56:05.350Z,74.43
2022-08-01T06:57:05.199Z,75.63
2022-08-01T06:58:05.029Z,75.53
2022-08-01T06:59:04.949Z,73.14
2022-08-01T07:00:05.030Z,73.84
2022-08-01T07:01:05.312Z,71.95
2022-08-01T07:02:05.503Z,73.84
2022-08-01T07:03:04.959Z,71.15
2022-08-01T07:04:04.998Z,70.95
2022-08-01T07:05:04.858Z,70.65
2022-08-01T07:06:05.015Z,70.79
2022-08-01T07:07:04.865Z,70.68
2022-08-01T07:08:04.825Z,70.98
2022-08-01T07:09:09.699Z,70.79
2022-08-01T07:10:04.794Z,71.88
2022-08-01T07:11:04.854Z,71.19
2022-08-01T07:12:05.137Z,71.98
2022-08-01T07:13:05.674Z,70.09
2022-08-01T07:14:04.731Z,69.79
2022-08-01T07:15:04.798Z,69.36
2022-08-01T07:16:04.998Z,70.15
2022-08-01T07:17:04.875Z,69.36
2022-08-01T07:18:04.682Z,67.44
2022-08-01T07:19:04.658Z,67.37
2022-08-01T07:20:04.691Z,66.31
2022-08-01T07:21:05.085Z,63.31
2022-08-01T07:22:04.865Z,63.84
2022-08-01T07:23:04.679Z,60.83
2022-08-01T07:24:11.342Z,61.30
2022-08-01T07:25:04.605Z,60.19
2022-08-01T07:26:04.735Z,60.06
2022-08-01T07:27:24.059Z,61.44
2022-08-01T07:28:04.553Z,58.84
2022-08-01T07:29:04.609Z,59.14
2022-08-01T07:30:04.536Z,58.94
2022-08-01T07:31:04.534Z,59.18
2022-08-01T07:32:04.882Z,54.40
2022-08-01T07:33:04.493Z,55.07
2022-08-01T07:34:04.712Z,55.89
2022-08-01T07:35:04.553Z,54.71
2022-08-01T07:36:04.429Z,54.88
2022-08-01T07:37:04.549Z,51.81
2022-08-01T07:38:04.429Z,49.53
2022-08-01T07:39:04.530Z,50.14
2022-08-01T07:40:04.460Z,51.79
2022-08-01T07:41:04.599Z,52.19
2022-08-01T07:42:07.363Z,52.61
2022-08-01T07:43:04.571Z,54.49
2022-08-01T07:44:04.856Z,50.71
2022-08-01T07:45:04.534Z,46.89
2022-08-01T07:46:04.375Z,46.18
2022-08-01T07:47:04.392Z,47.31
2022-08-01T07:48:04.424Z,45.65
2022-08-01T07:49:04.577Z,47.31
2022-08-01T07:50:04.396Z,44.34
2022-08-01T07:51:04.544Z,44.70
2022-08-01T07:52:04.657Z,46.92
2022-08-01T07:53:04.239Z,45.43
2022-08-01T07:54:04.430Z,46.11
2022-08-01T07:55:04.209Z,44.26
2022-08-01T07:56:04.268Z,45.48
2022-08-01T07:57:04.270Z,45.92
2022-08-01T07:58:04.372Z,42.69
2022-08-01T07:59:04.225Z,42.08
2022-08-01T08:00:04.359Z,43.88
2022-08-01T08:01:04.209Z,44.87
2022-08-01T08:02:04.692Z,46.30
2022-08-01T08:03:04.215Z,42.80
2022-08-01T08:04:04.377Z,43.43
2022-08-01T08:05:04.230Z,45.58
2022-08-01T08:06:04.064Z,45.37
2022-08-01T08:07:04.709Z,46.25
2022-08-01T08:08:04.124Z,48.13
2022-08-01T08:09:04.241Z,49.73
2022-08-01T08:10:04.044Z,48.11
2022-08-01T08:11:04.240Z,51.72
2022-08-01T08:12:04.492Z,50.27
2022-08-01T08:13:03.971Z,50.34
2022-08-01T08:14:04.128Z,50.09
2022-08-01T08:15:04.198Z,50.24
2022-08-01T08:16:04.059Z,52.03
2022-08-01T08:17:03.920Z,53.34
2022-08-01T08:18:04.049Z,53.05
2022-08-01T08:19:03.888Z,52.33
2022-08-01T08:20:04.123Z,51.47
2022-08-01T08:21:06.762Z,50.24
2022-08-01T08:22:04.262Z,52.70
2022-08-01T08:23:03.853Z,50.73
2022-08-01T08:24:04.043Z,52.28
2022-08-01T08:25:03.914Z,50.63
2022-08-01T08:26:03.794Z,50.32
2022-08-01T08:27:03.954Z,51.50
2022-08-01T08:28:03.779Z,53.06
2022-08-01T08:29:03.867Z,50.12
2022-08-01T08:30:03.758Z,51.39
2022-08-01T08:31:03.899Z,47.45
2022-08-01T08:32:03.858Z,48.43
2022-08-01T08:33:03.718Z,49.16
2022-08-01T08:34:03.729Z,52.58
2022-08-01T08:35:03.770Z,53.78
2022-08-01T08:36:03.683Z,51.57
2022-08-01T08:37:03.664Z,54.65
2022-08-01T08:38:03.693Z,54.19
2022-08-01T08:39:03.624Z,53.89
2022-08-01T08:40:03.617Z,56.46
2022-08-01T08:41:03.694Z,53.52
2022-08-01T08:42:04.225Z,54.41
2022-08-01T08:43:03.585Z,57.34
2022-08-01T08:44:03.574Z,56.92
2022-08-01T08:45:03.565Z,54.13
2022-08-01T08:46:03.758Z,54.03
2022-08-01T08:47:03.576Z,54.72
2022-08-01T08:48:03.578Z,55.44
2022-08-01T08:49:03.642Z,55.94
2022-08-01T08:50:03.749Z,55.54
2022-08-01T08:51:03.575Z,56.40
2022-08-01T08:52:03.737Z,55.54
2022-08-01T08:53:03.558Z,54.46
2022-08-01T08:54:03.499Z,55.15
2022-08-01T08:55:03.574Z,57.12
2022-08-01T08:56:03.414Z,56.21
2022-08-01T08:57:03.574Z,56.23
2022-08-01T08:58:03.404Z,57.22
2022-08-01T08:59:03.374Z,58.28
2022-08-01T09:00:03.434Z,54.75
2022-08-01T09:01:03.563Z,55.35
2022-08-01T09:02:03.403Z,57.45
2022-08-01T09:03:03.445Z,56.85
2022-08-01T09:04:03.419Z,56.36
2022-08-01T09:05:03.319Z,56.95
2022-08-01T09:06:03.369Z,55.15
2022-08-01T09:07:03.578Z,54.80
2022-08-01T09:08:03.410Z,56.85
2022-08-01T09:09:03.258Z,54.19
2022-08-01T09:10:03.219Z,54.02
2022-08-01T09:11:03.229Z,57.07
2022-08-01T09:12:03.480Z,55.79
2022-08-01T09:13:03.244Z,55.92
2022-08-01T09:14:03.426Z,56.71
2022-08-01T09:15:03.254Z,56.78
2022-08-01T09:16:03.153Z,56.09
2022-08-01T09:17:03.343Z,56.68
2022-08-01T09:18:03.405Z,55.96
2022-08-01T09:19:03.255Z,56.46
2022-08-01T09:20:03.086Z,55.77
2022-08-01T09:21:03.064Z,55.57
2022-08-01T09:22:03.297Z,54.97
2022-08-01T09:23:03.328Z,55.12
2022-08-01T09:24:03.032Z,53.91
2022-08-01T09:25:03.275Z,54.05
2022-08-01T09:26:03.079Z,53.05
2022-08-01T09:27:03.260Z,51.93
2022-08-01T09:28:03.089Z,51.97
2022-08-01T09:29:03.319Z,52.06
2022-08-01T09:30:03.079Z,51.97
2022-08-01T09:31:02.999Z,51.93
2022-08-01T09:32:03.063Z,52.97
2022-08-01T09:33:11.527Z,53.66
2022-08-01T09:34:03.076Z,53.58
2022-08-01T09:35:02.955Z,53.49
2022-08-01T09:36:02.894Z,51.15
2022-08-01T09:37:02.867Z,54.57
2022-08-01T09:38:02.844Z,51.81
2022-08-01T09:39:02.835Z,52.45
2022-08-01T09:40:02.834Z,53.17
2022-08-01T09:41:02.899Z,51.92
2022-08-01T09:42:02.800Z,53.44
2022-08-01T09:43:03.104Z,54.85
2022-08-01T09:44:02.789Z,53.52
2022-08-01T09:45:02.770Z,53.93
2022-08-01T09:46:03.108Z,53.07
2022-08-01T09:47:07.806Z,52.31
2022-08-01T09:48:02.791Z,54.50
2022-08-01T09:49:02.785Z,56.60
2022-08-01T09:50:06.287Z,57.42
2022-08-01T09:51:07.375Z,55.71
2022-08-01T09:52:02.860Z,55.35
2022-08-01T09:53:02.683Z,55.60
2022-08-01T09:54:02.775Z,54.68
2022-08-01T09:55:02.626Z,52.23
2022-08-01T09:56:02.775Z,49.68
2022-08-01T09:57:02.661Z,49.80
2022-08-01T09:58:02.850Z,47.45
2022-08-01T09:59:03.009Z,49.51
2022-08-01T10:00:02.980Z,45.37
2022-08-01T10:01:02.632Z,46.23
2022-08-01T10:02:02.780Z,47.80
2022-08-01T10:03:10.232Z,48.46
2022-08-01T10:04:02.653Z,46.89
2022-08-01T10:05:03.656Z,45.23
2022-08-01T10:06:02.487Z,47.50
2022-08-01T10:07:02.650Z,48.09
2022-08-01T10:08:02.534Z,46.28
2022-08-01T10:09:02.614Z,48.33
2022-08-01T10:10:02.453Z,46.08
2022-08-01T10:11:02.733Z,46.28
2022-08-01T10:12:02.471Z,47.06
2022-08-01T10:13:03.333Z,46.23
2022-08-01T10:14:02.448Z,45.80
2022-08-01T10:15:02.380Z,45.61
2022-08-01T10:16:02.468Z,47.67
2022-08-01T10:17:05.126Z,47.17
2022-08-01T10:18:02.504Z,44.24
2022-08-01T10:19:02.319Z,44.14
2022-08-01T10:20:02.460Z,46.48
2022-08-01T10:21:02.299Z,44.90
2022-08-01T10:22:02.291Z,45.26
2022-08-01T10:23:06.191Z,44.12
2022-08-01T10:24:03.249Z,43.92
2022-08-01T10:25:02.395Z,46.73
2022-08-01T10:26:02.455Z,46.17
2022-08-01T10:27:06.136Z,43.73
2022-08-01T10:28:02.497Z,44.21
2022-08-01T10:29:02.303Z,47.83
2022-08-01T10:30:08.624Z,44.56
2022-08-01T10:31:02.375Z,47.49
2022-08-01T10:32:02.460Z,43.78
2022-08-01T10:33:02.309Z,45.84
2022-08-01T10:34:02.154Z,46.66
2022-08-01T10:35:06.632Z,43.90
2022-08-01T10:36:02.108Z,43.75
2022-08-01T10:37:02.188Z,45.02
2022-08-01T10:38:02.153Z,43.75
2022-08-01T10:39:02.288Z,43.14
2022-08-01T10:40:28.904Z,45.86
2022-08-01T10:41:02.084Z,45.01
2022-08-01T10:42:02.034Z,46.00
2022-08-01T10:43:02.056Z,47.47
2022-08-01T10:44:02.086Z,50.44
2022-08-01T10:45:02.107Z,50.68
2022-08-01T10:46:01.984Z,52.06
2022-08-01T10:47:01.965Z,50.07
2022-08-01T10:48:02.097Z,49.77
2022-08-01T10:49:02.075Z,50.24
2022-08-01T10:50:01.939Z,47.99
2022-08-01T10:51:02.070Z,50.09
2022-08-01T10:52:01.910Z,48.27
2022-08-01T10:53:08.865Z,50.78
2022-08-01T10:54:01.910Z,51.47
2022-08-01T10:55:01.872Z,49.63
2022-08-01T10:56:02.896Z,49.26
2022-08-01T10:57:02.054Z,47.45
2022-08-01T10:58:01.844Z,46.89
2022-08-01T10:59:01.997Z,48.14
2022-08-01T11:00:01.991Z,50.27
2022-08-01T11:01:01.878Z,46.60
2022-08-01T11:02:01.915Z,45.82
2022-08-01T11:03:01.848Z,46.48
2022-08-01T11:04:02.126Z,47.75
2022-08-01T11:05:01.983Z,46.40
2022-08-01T11:06:01.807Z,47.96
2022-08-01T11:07:01.991Z,48.69
2022-08-01T11:08:01.809Z,50.04
2022-08-01T11:09:02.046Z,51.20
2022-08-01T11:10:01.890Z,52.53
2022-08-01T11:11:01.670Z,52.03
2022-08-01T11:12:01.799Z,53.61
2022-08-01T11:13:01.648Z,55.83
2022-08-01T11:14:01.809Z,53.47
2022-08-01T11:15:02.390Z,54.38
2022-08-01T11:16:06.073Z,51.99
2022-08-01T11:17:01.655Z,53.12
2022-08-01T11:18:01.903Z,56.76
2022-08-01T11:19:01.666Z,52.16
2022-08-01T11:20:01.566Z,53.19
2022-08-01T11:21:59.232Z,54.90
2022-08-01T11:22:04.789Z,53.44
2022-08-01T11:23:02.016Z,54.55
2022-08-01T11:24:01.518Z,56.56
2022-08-01T11:25:01.650Z,57.24
2022-08-01T11:26:05.227Z,55.87
2022-08-01T11:27:01.649Z,57.60
2022-08-01T11:28:01.489Z,56.02
2022-08-01T11:29:19.342Z,55.49
2022-08-01T11:30:01.488Z,55.30
2022-08-01T11:31:01.408Z,56.21
2022-08-01T11:32:01.577Z,57.57
2022-08-01T11:33:10.366Z,58.65
2022-08-01T11:34:03.535Z,59.67
2022-08-01T11:35:01.695Z,58.09
2022-08-01T11:36:01.500Z,57.03
2022-08-01T11:37:01.319Z,59.14
2022-08-01T11:38:01.545Z,57.16
2022-08-01T11:39:01.496Z,58.94
2022-08-01T11:40:01.267Z,59.53
2022-08-01T11:41:01.348Z,58.25
2022-08-01T11:42:01.279Z,58.42
2022-08-01T11:43:01.350Z,60.96
2022-08-01T11:44:01.309Z,56.68
2022-08-01T11:45:01.328Z,56.58
2022-08-01T11:46:01.209Z,56.51
2022-08-01T11:47:01.202Z,56.41
2022-08-01T11:48:01.179Z,56.91
2022-08-01T11:49:01.259Z,59.01
2022-08-01T11:50:01.243Z,58.51
2022-08-01T11:51:02.213Z,59.14
2022-08-01T11:52:01.195Z,56.96
2022-08-01T11:53:01.125Z,57.18
2022-08-01T11:54:01.094Z,58.51
2022-08-01T11:55:01.116Z,55.58
2022-08-01T11:56:01.134Z,53.68
2022-08-01T11:57:01.084Z,50.21
2022-08-01T11:58:01.197Z,49.80
2022-08-01T11:59:01.079Z,51.51
2022-08-01T12:00:04.282Z,50.12
2022-08-01T12:01:01.058Z,53.41
2022-08-01T12:02:01.129Z,55.32
2022-08-01T12:03:01.164Z,51.79
2022-08-01T12:04:00.993Z,49.31
2022-08-01T12:05:01.030Z,51.07
2022-08-01T12:06:01.169Z,52.70
2022-08-01T12:07:01.019Z,53.34
2022-08-01T12:08:00.957Z,54.03
2022-08-01T12:09:01.004Z,57.78
2022-08-01T12:10:00.934Z,55.71
2022-08-01T12:11:02.541Z,53.64
2022-08-01T12:12:00.884Z,55.32
2022-08-01T12:13:01.025Z,54.53
2022-08-01T12:14:00.868Z,54.43
2022-08-01T12:15:01.088Z,54.16
2022-08-01T12:16:00.865Z,54.85
2022-08-01T12:17:01.024Z,54.88
2022-08-01T12:18:00.846Z,56.31
2022-08-01T12:19:01.023Z,54.83
2022-08-01T12:20:00.850Z,60.19
2022-08-01T12:21:01.081Z,59.31
2022-08-01T12:22:00.840Z,58.64
2022-08-01T12:23:01.019Z,56.30
2022-08-01T12:24:00.849Z,55.80
2022-08-01T12:25:00.719Z,59.06
2022-08-01T12:26:00.853Z,58.57
2022-08-01T12:27:00.786Z,57.61
2022-08-01T12:28:00.854Z,59.69
2022-08-01T12:29:00.694Z,58.37
2022-08-01T12:30:02.250Z,59.63
2022-08-01T12:31:00.684Z,57.13
2022-08-01T12:32:00.854Z,58.19
2022-08-01T12:33:00.787Z,58.16
2022-08-01T12:34:00.586Z,56.48
2022-08-01T12:35:00.691Z,59.64
2022-08-01T12:36:00.597Z,55.49
2022-08-01T12:37:00.702Z,55.62
2022-08-01T12:38:00.528Z,57.50
2022-08-01T12:39:00.799Z,57.20
2022-08-01T12:40:00.520Z,57.10
2022-08-01T12:41:00.490Z,57.10
2022-08-01T12:42:00.521Z,56.71
2022-08-01T12:43:00.469Z,57.79
2022-08-01T12:44:00.473Z,57.30
2022-08-01T12:45:00.794Z,60.46
2022-08-01T12:46:01.042Z,61.25
2022-08-01T12:47:00.435Z,58.09
2022-08-01T12:48:00.591Z,59.18
2022-08-01T12:49:00.754Z,59.38
2022-08-01T12:50:00.386Z,60.07
2022-08-01T12:51:00.436Z,58.51
2022-08-01T12:52:00.354Z,59.20